Saltillo, PA (17253)

3:59 AM EDT on October 21, 2014 (GMT -0400)
Hill Valley | Change Station
CLOSE
Current Station
Personal Weather Station
Location: Mount Union, PA
Elevation: 192 m
Nearby Weather Stations

Elev 192 m 40.35 °N, 77.90 °W | Updated 5 seconds ago

Overcast
Overcast
10.1 °C
Feels Like 10.1 °C
N
0.0
Wind Variable Wind from North
Gusts 0.0 km/h

Today
High -- | Low -- °C
--% Chance of Precip.
Yesterday
High -- | Low -- °C
Precip. -- mm
7:29 AM 6:23 PM
Waning Crescent, 7% visible
Pressure 1011 hPa
Visibility 16.1 kilometers
Clouds Few 822 m
Mostly Cloudy 1828 m
Overcast 3048 m
Dew Point 8 °C
Humidity 89%
Rainfall 0 mm
Snow Depth Not available.
UV 0 out of 12
Pollen .60 out of 12
Air Quality Not available.
Flu Activity Sporadic
METAR KAOO 210753Z AUTO 20005KT 10SM FEW027 BKN060 OVC100 09/07 A2985 RMK AO2 RAB02E33 SLP109 P0000 T00940067

More Conditions Fewer Conditions

Pressure 1011 hPa
Visibility 16.1 kilometers
Clouds Few 822 m
Mostly Cloudy 1828 m
Overcast 3048 m
Dew Point 8 °C
Humidity 89%
Rainfall 0 mm
Snow Depth Not available.
UV 0 out of 12
Pollen .60 out of 12
Air Quality Not available.
Flu Activity Sporadic
METAR KAOO 210753Z AUTO 20005KT 10SM FEW027 BKN060 OVC100 09/07 A2985 RMK AO2 RAB02E33 SLP109 P0000 T00940067

More Conditions Fewer Conditions

Nowcast | as of 2:09 am EDT on October 21, 2014

Scattered showers...some on the heavy side...will be across the western sections of central Pennsylvania through 5 am. Most of the showers will be west and north of a Wellsboro...Lewistown... Bedford line. The showers are moving northeast at 25 mph.

×

10-Day Weather Forecast

Almanac

Astronomy

Oct. 21, 2014 Rise Set
Actual Time 7:29 AM EDT 6:23 PM EDT
Civil Twilight 7:01 AM EDT 6:51 PM EDT
Nautical Twilight 6:29 AM EDT 7:22 PM EDT
Astronomical Twilight 5:58 AM EDT 7:54 PM EDT
Moon 5:11 AM EDT 5:16 PM EDT
Length of Visible Light 11h 49m
Length of Day
10h 54m
Tomorrow will be 2m 30s shorter.
Waning Crescent, 7% of the Moon is Illuminated
Today
Waning Crescent
Oct 23
New
Oct 30
First Quarter
Nov 6
Full
Nov 14
Last Quarter

Today's Extremes

State Highs State Lows

Community

WunderPhotos

Upload Photos

1,763,619 photos uploaded!

Nearby

Snow Depth

Station Depth Elevation
No new snow has been reported.

Earthquake Activity

City Distance Mag. Time & Date
No recent earthquake activity has been reported nearby.
Minimum magnitude displayed is 2.5.

Coastal Water Temperatures

Place Temperature
No Stations Reporting

Nearby Weather Stations